createdAt,value
2023-05-25T00:00:11.333Z,3.17
2023-05-25T00:02:39.662Z,2.73
2023-05-25T00:05:09.475Z,2.97
2023-05-25T00:07:36.308Z,2.97
2023-05-25T00:10:03.593Z,2.43
2023-05-25T00:12:30.604Z,2.87
2023-05-25T00:14:57.340Z,2.50
2023-05-25T00:17:24.438Z,2.37
2023-05-25T00:19:51.564Z,2.77
2023-05-25T00:22:18.373Z,3.00
2023-05-25T00:24:45.082Z,2.67
2023-05-25T00:27:11.816Z,2.87
2023-05-25T00:29:38.504Z,3.00
2023-05-25T00:32:05.740Z,3.13
2023-05-25T00:34:32.476Z,3.10
2023-05-25T00:36:59.251Z,2.93
2023-05-25T00:39:27.965Z,3.10
2023-05-25T00:41:56.252Z,2.80
2023-05-25T00:44:23.020Z,2.63
2023-05-25T00:46:52.073Z,2.80
2023-05-25T00:49:20.817Z,2.57
2023-05-25T00:51:48.077Z,2.80
2023-05-25T00:54:18.649Z,2.70
2023-05-25T00:57:04.748Z,3.03
2023-05-25T00:59:35.794Z,2.80
2023-05-25T01:02:07.571Z,2.30
2023-05-25T01:04:38.288Z,2.43
2023-05-25T01:07:08.599Z,2.70
2023-05-25T01:09:39.264Z,2.77
2023-05-25T01:12:07.554Z,2.30
2023-05-25T01:14:35.081Z,2.37
2023-05-25T01:17:03.267Z,2.63
2023-05-25T01:19:33.699Z,3.33
2023-05-25T01:22:10.838Z,2.47
2023-05-25T01:24:47.348Z,2.70
2023-05-25T01:27:16.819Z,2.40
2023-05-25T01:29:45.870Z,2.30
2023-05-25T01:32:14.092Z,2.30
2023-05-25T01:34:43.172Z,2.70
2023-05-25T01:37:13.314Z,2.17
2023-05-25T01:39:41.264Z,2.63
2023-05-25T01:42:08.419Z,2.73
2023-05-25T01:44:36.175Z,2.30
2023-05-25T01:47:10.454Z,3.10
2023-05-25T01:49:52.171Z,2.43
2023-05-25T01:52:23.541Z,2.60
2023-05-25T01:54:59.749Z,2.23
2023-05-25T01:57:29.143Z,2.27
2023-05-25T02:00:02.722Z,2.43
2023-05-25T02:02:43.815Z,2.47
2023-05-25T02:05:11.763Z,2.67
2023-05-25T02:07:38.748Z,2.50
2023-05-25T02:10:06.114Z,3.50
2023-05-25T02:12:32.876Z,2.60
2023-05-25T02:14:59.584Z,2.60
2023-05-25T02:17:27.953Z,2.67
2023-05-25T02:19:54.894Z,2.50
2023-05-25T02:22:22.539Z,2.67
2023-05-25T02:24:49.585Z,2.43
2023-05-25T02:27:16.464Z,2.67
2023-05-25T02:29:43.260Z,2.33
2023-05-25T02:32:09.969Z,2.30
2023-05-25T02:34:36.779Z,2.20
2023-05-25T02:37:03.664Z,2.00
2023-05-25T02:39:30.495Z,2.67
2023-05-25T02:41:59.153Z,2.63
2023-05-25T02:44:26.775Z,2.47
2023-05-25T02:46:53.575Z,2.17
2023-05-25T02:49:20.462Z,2.50
2023-05-25T02:51:48.095Z,3.07
2023-05-25T02:54:14.967Z,2.23
2023-05-25T02:56:42.451Z,2.60
2023-05-25T02:59:09.552Z,2.53
2023-05-25T03:01:36.668Z,2.53
2023-05-25T03:04:03.756Z,2.83
2023-05-25T03:06:36.533Z,2.60
2023-05-25T03:09:09.733Z,2.30
2023-05-25T03:11:38.170Z,2.70
2023-05-25T03:14:04.982Z,2.97
2023-05-25T03:16:36.161Z,2.47
2023-05-25T03:19:05.405Z,2.40
2023-05-25T03:21:34.336Z,2.23
2023-05-25T03:24:01.060Z,2.27
2023-05-25T03:26:28.887Z,2.87
2023-05-25T03:28:55.667Z,2.50
2023-05-25T03:31:23.531Z,2.87
2023-05-25T03:33:50.347Z,2.90
2023-05-25T03:36:18.664Z,2.73
2023-05-25T03:38:45.443Z,2.63
2023-05-25T03:41:12.181Z,2.30
2023-05-25T03:43:38.863Z,2.40
2023-05-25T03:46:07.501Z,2.40
2023-05-25T03:48:34.247Z,2.80
2023-05-25T03:51:01.028Z,2.57
2023-05-25T03:53:27.831Z,3.17
2023-05-25T03:55:54.629Z,3.23
2023-05-25T03:58:21.351Z,2.20
2023-05-25T04:00:51.670Z,3.17
2023-05-25T04:03:18.898Z,2.70
2023-05-25T04:05:46.024Z,2.70
2023-05-25T04:08:18.086Z,2.77
2023-05-25T04:10:48.064Z,2.47
2023-05-25T04:13:14.962Z,3.43
2023-05-25T04:15:42.171Z,2.80
2023-05-25T04:18:13.741Z,2.53
2023-05-25T04:20:41.025Z,2.60
2023-05-25T04:23:10.729Z,3.10
2023-05-25T04:25:38.816Z,2.70
2023-05-25T04:28:08.343Z,2.50
2023-05-25T04:30:56.800Z,2.37
2023-05-25T04:33:31.213Z,2.83
2023-05-25T04:36:03.870Z,2.53
2023-05-25T04:38:30.800Z,2.73
2023-05-25T04:40:59.571Z,3.23
2023-05-25T04:43:27.811Z,2.60
2023-05-25T04:45:54.999Z,2.80
2023-05-25T04:48:22.765Z,2.73
2023-05-25T04:50:50.048Z,3.00
2023-05-25T04:53:17.122Z,2.73
2023-05-25T04:55:44.084Z,3.17
2023-05-25T05:00:40.181Z,2.43
2023-05-25T05:03:07.040Z,2.70
2023-05-25T05:05:35.989Z,2.70
2023-05-25T05:08:04.468Z,2.40
2023-05-25T05:10:32.181Z,2.70
2023-05-25T05:12:59.354Z,3.13
2023-05-25T05:15:26.837Z,2.77
2023-05-25T05:17:54.484Z,2.47
2023-05-25T05:20:21.571Z,2.60
2023-05-25T05:22:48.374Z,2.43
2023-05-25T05:25:15.259Z,2.27
2023-05-25T05:27:42.010Z,2.80
2023-05-25T05:30:17.127Z,2.90
2023-05-25T05:32:46.021Z,2.40
2023-05-25T05:35:13.714Z,2.53
2023-05-25T05:37:43.982Z,2.40
2023-05-25T05:40:11.848Z,2.33
2023-05-25T05:42:41.019Z,2.20
2023-05-25T05:45:08.787Z,2.03
2023-05-25T05:47:35.783Z,2.77
2023-05-25T05:50:03.101Z,2.80
2023-05-25T05:52:30.406Z,2.83
2023-05-25T05:54:57.164Z,2.60
2023-05-25T05:57:24.048Z,2.40
2023-05-25T05:59:50.896Z,2.00
2023-05-25T06:02:18.420Z,2.60
2023-05-25T06:04:45.585Z,2.20
2023-05-25T06:07:12.359Z,2.70
2023-05-25T06:09:39.205Z,2.23
2023-05-25T06:12:06.594Z,2.30
2023-05-25T06:14:34.134Z,2.50
2023-05-25T06:17:03.110Z,2.67
2023-05-25T06:19:30.383Z,1.90
2023-05-25T06:21:57.663Z,3.03
2023-05-25T06:24:24.411Z,2.03
2023-05-25T06:26:51.131Z,1.87
2023-05-25T06:29:19.577Z,2.33
2023-05-25T06:31:46.492Z,2.17
2023-05-25T06:34:13.292Z,2.13
2023-05-25T06:36:41.779Z,2.13
2023-05-25T06:39:08.803Z,2.17
2023-05-25T06:41:37.008Z,2.10
2023-05-25T06:44:03.890Z,2.23
2023-05-25T06:46:32.880Z,2.13
2023-05-25T06:49:00.960Z,2.10
2023-05-25T06:51:28.269Z,2.43
2023-05-25T06:53:55.962Z,2.13
2023-05-25T06:56:23.494Z,2.80
2023-05-25T06:58:50.853Z,3.10
2023-05-25T07:01:17.675Z,2.80
2023-05-25T07:03:44.441Z,2.03
2023-05-25T07:06:12.184Z,2.23
2023-05-25T07:08:38.991Z,2.40
2023-05-25T07:11:05.904Z,2.17
2023-05-25T07:13:32.581Z,2.30
2023-05-25T07:15:59.378Z,1.97
2023-05-25T07:18:26.348Z,2.60
2023-05-25T07:20:53.420Z,2.40
2023-05-25T07:23:20.194Z,2.23
2023-05-25T07:25:47.153Z,2.30
2023-05-25T07:28:14.141Z,2.90
2023-05-25T07:30:41.413Z,1.90
2023-05-25T07:33:08.256Z,2.13
2023-05-25T07:35:35.492Z,2.30
2023-05-25T07:38:07.081Z,2.47
2023-05-25T07:40:33.812Z,2.60
2023-05-25T07:43:00.488Z,2.30
2023-05-25T07:45:27.272Z,2.20
2023-05-25T07:47:54.035Z,2.17
2023-05-25T07:50:20.809Z,2.30
2023-05-25T07:52:47.632Z,2.03
2023-05-25T07:55:14.337Z,2.33
2023-05-25T07:57:41.244Z,2.07
2023-05-25T08:00:09.415Z,2.17
2023-05-25T08:02:42.230Z,2.20
2023-05-25T08:05:10.006Z,1.90
2023-05-25T08:07:36.995Z,2.10
2023-05-25T08:10:04.782Z,2.40
2023-05-25T08:12:46.881Z,2.60
2023-05-25T08:15:15.290Z,2.13
2023-05-25T08:17:42.617Z,2.60
2023-05-25T08:20:10.627Z,2.50
2023-05-25T08:22:37.613Z,2.40
2023-05-25T08:25:05.382Z,2.30
2023-05-25T08:27:35.218Z,2.33
2023-05-25T08:30:02.663Z,2.27
2023-05-25T08:32:29.383Z,2.40
2023-05-25T08:34:56.164Z,2.10
2023-05-25T08:37:23.596Z,2.47
2023-05-25T08:39:50.638Z,4.00
2023-05-25T08:42:17.405Z,2.07
2023-05-25T08:44:44.200Z,2.07
2023-05-25T08:47:12.299Z,2.20
2023-05-25T08:49:39.728Z,1.67
2023-05-25T08:52:11.283Z,1.97
2023-05-25T08:54:38.786Z,1.90
2023-05-25T08:57:12.619Z,2.23
2023-05-25T09:00:04.056Z,2.47
2023-05-25T09:02:42.345Z,2.03
2023-05-25T09:05:09.616Z,2.23
2023-05-25T09:07:36.460Z,2.37
2023-05-25T09:10:03.660Z,2.20
2023-05-25T09:12:31.578Z,2.27
2023-05-25T09:14:59.293Z,3.43
2023-05-25T09:17:26.828Z,2.33
2023-05-25T09:19:54.140Z,2.30
2023-05-25T09:22:21.038Z,2.27
2023-05-25T09:24:48.564Z,2.17
2023-05-25T09:27:20.579Z,2.27
2023-05-25T09:29:49.382Z,2.17
2023-05-25T09:32:17.361Z,2.00
2023-05-25T09:34:46.483Z,2.33
2023-05-25T09:37:16.398Z,1.73
2023-05-25T09:39:43.834Z,1.90
2023-05-25T09:42:11.821Z,2.50
2023-05-25T09:44:39.682Z,2.77
2023-05-25T09:47:06.575Z,1.90
2023-05-25T09:49:33.432Z,2.83
2023-05-25T09:52:00.675Z,2.37
2023-05-25T09:54:27.477Z,1.70
2023-05-25T09:56:54.571Z,2.63
2023-05-25T09:59:22.809Z,1.97
2023-05-25T10:01:53.516Z,2.43
2023-05-25T10:04:20.891Z,2.43
2023-05-25T10:06:49.956Z,1.90
2023-05-25T10:09:19.361Z,2.13
2023-05-25T10:11:47.485Z,2.10
2023-05-25T10:14:22.539Z,2.13
2023-05-25T10:16:53.160Z,2.17
2023-05-25T10:19:24.655Z,2.00
2023-05-25T10:21:58.797Z,2.20
2023-05-25T10:24:34.616Z,2.00
2023-05-25T10:27:14.777Z,2.47
2023-05-25T10:29:49.574Z,2.67
2023-05-25T10:32:17.331Z,2.30
2023-05-25T10:34:44.827Z,2.30
2023-05-25T10:37:14.234Z,2.10
2023-05-25T10:39:44.067Z,2.53
2023-05-25T10:42:12.959Z,1.90
2023-05-25T10:44:42.108Z,5.83
2023-05-25T10:47:09.813Z,2.17
2023-05-25T10:49:56.254Z,2.30
2023-05-25T10:52:30.735Z,3.27
2023-05-25T10:55:02.071Z,1.90
2023-05-25T10:57:29.071Z,1.83
2023-05-25T11:00:06.805Z,1.97
2023-05-25T11:02:55.686Z,1.87
2023-05-25T11:05:31.280Z,2.70
2023-05-25T11:07:59.011Z,2.30
2023-05-25T11:10:50.594Z,1.80
2023-05-25T11:13:23.582Z,1.63
2023-05-25T11:16:09.404Z,1.97
2023-05-25T11:18:41.485Z,2.17
2023-05-25T11:21:12.924Z,1.90
2023-05-25T11:23:56.167Z,2.43
2023-05-25T11:26:32.110Z,3.47
2023-05-25T11:29:00.125Z,2.53
2023-05-25T11:31:35.228Z,1.80
2023-05-25T11:34:06.104Z,1.50
2023-05-25T11:36:35.797Z,1.80
2023-05-25T11:39:14.231Z,2.20
2023-05-25T11:41:55.868Z,2.10
2023-05-25T11:44:41.442Z,2.40
2023-05-25T11:47:14.401Z,1.93
2023-05-25T11:49:42.264Z,1.97
2023-05-25T11:52:10.470Z,1.90
2023-05-25T11:54:41.100Z,1.90
2023-05-25T11:57:19.229Z,1.90
2023-05-25T11:59:54.521Z,2.30
2023-05-25T12:02:22.285Z,1.97
2023-05-25T12:04:55.212Z,2.30
2023-05-25T12:07:22.382Z,2.23
2023-05-25T12:09:49.235Z,1.73
2023-05-25T12:12:16.169Z,1.83
2023-05-25T12:14:51.931Z,1.70
2023-05-25T12:17:21.356Z,2.10
2023-05-25T12:19:48.511Z,2.27
2023-05-25T12:22:16.396Z,1.90
2023-05-25T12:24:43.282Z,2.53
2023-05-25T12:27:20.983Z,1.93
2023-05-25T12:29:48.395Z,2.13
2023-05-25T12:32:15.910Z,2.70
2023-05-25T12:34:43.031Z,2.10
2023-05-25T12:37:20.994Z,1.93
2023-05-25T12:39:48.409Z,2.00
2023-05-25T12:42:16.983Z,1.80
2023-05-25T12:44:46.358Z,2.20
2023-05-25T12:47:22.422Z,1.83
2023-05-25T12:49:53.993Z,2.37
2023-05-25T12:52:32.983Z,1.80
2023-05-25T12:55:18.783Z,1.83
2023-05-25T12:57:47.066Z,1.90
2023-05-25T13:00:14.285Z,1.80
2023-05-25T13:02:49.614Z,2.00
2023-05-25T13:05:22.121Z,2.37
2023-05-25T13:07:49.280Z,2.07
2023-05-25T13:10:19.726Z,2.23
2023-05-25T13:12:50.947Z,2.57
2023-05-25T13:15:22.379Z,2.03
2023-05-25T13:17:50.714Z,2.40
2023-05-25T13:20:19.463Z,2.50
2023-05-25T13:22:47.268Z,1.90
2023-05-25T13:25:14.789Z,1.83
2023-05-25T13:27:46.281Z,2.07
2023-05-25T13:30:14.072Z,1.73
2023-05-25T13:32:44.612Z,2.37
2023-05-25T13:35:18.360Z,1.90
2023-05-25T13:37:45.906Z,2.27
2023-05-25T13:40:13.413Z,2.33
2023-05-25T13:42:40.372Z,1.97
2023-05-25T13:45:07.813Z,2.10
2023-05-25T13:47:34.685Z,2.10
2023-05-25T13:50:01.490Z,2.00
2023-05-25T13:52:28.633Z,2.20
2023-05-25T13:54:55.343Z,1.90
2023-05-25T13:57:22.518Z,2.13
2023-05-25T13:59:49.325Z,1.90
2023-05-25T14:02:16.467Z,2.50
2023-05-25T14:04:43.332Z,2.27
2023-05-25T14:07:10.087Z,2.10
2023-05-25T14:09:36.804Z,2.50
2023-05-25T14:12:03.790Z,1.87
2023-05-25T14:14:32.655Z,2.20
2023-05-25T14:17:00.985Z,1.80
2023-05-25T14:19:28.083Z,2.37
2023-05-25T14:24:24.572Z,2.10
2023-05-25T14:26:51.274Z,2.30
2023-05-25T14:29:18.011Z,2.10
2023-05-25T14:31:44.814Z,2.10
2023-05-25T14:34:11.648Z,1.80
2023-05-25T14:36:38.339Z,1.77
2023-05-25T14:39:05.207Z,2.43
2023-05-25T14:41:31.891Z,2.00
2023-05-25T14:43:58.588Z,2.37
2023-05-25T14:46:25.375Z,2.33
2023-05-25T14:48:52.111Z,2.80
2023-05-25T14:51:18.828Z,2.47
2023-05-25T14:53:45.935Z,2.83
2023-05-25T14:56:12.679Z,2.80
2023-05-25T14:58:39.453Z,2.10
2023-05-25T15:01:06.174Z,2.60
2023-05-25T15:03:33.100Z,2.80
2023-05-25T15:05:59.924Z,2.60
2023-05-25T15:08:26.960Z,2.53
2023-05-25T15:10:53.824Z,2.87
2023-05-25T15:13:22.534Z,2.60
2023-05-25T15:15:51.999Z,2.40
2023-05-25T15:18:18.885Z,2.60
2023-05-25T15:20:45.817Z,2.60
2023-05-25T15:23:12.613Z,2.37
2023-05-25T15:25:39.374Z,3.13
2023-05-25T15:28:06.768Z,2.20
2023-05-25T15:30:34.411Z,2.87
2023-05-25T15:33:02.067Z,2.90
2023-05-25T15:35:32.217Z,2.57
2023-05-25T15:37:59.731Z,2.33
2023-05-25T15:40:26.876Z,2.50
2023-05-25T15:42:53.695Z,2.87
2023-05-25T15:45:20.387Z,2.80
2023-05-25T15:47:47.157Z,2.30
2023-05-25T15:50:13.889Z,2.23
2023-05-25T15:52:41.551Z,2.13
2023-05-25T15:55:08.922Z,2.70
2023-05-25T15:57:35.605Z,2.30
2023-05-25T16:00:02.380Z,2.37
2023-05-25T16:02:32.521Z,3.03
2023-05-25T16:04:59.409Z,2.60
2023-05-25T16:07:26.475Z,2.47
2023-05-25T16:09:53.170Z,2.17
2023-05-25T16:12:24.700Z,2.37
2023-05-25T16:14:52.396Z,2.57
2023-05-25T16:17:19.512Z,2.10
2023-05-25T16:19:48.774Z,2.30
2023-05-25T16:22:15.496Z,2.50
2023-05-25T16:24:42.227Z,2.47
2023-05-25T16:27:09.034Z,2.40
2023-05-25T16:29:35.713Z,2.43
2023-05-25T16:32:02.467Z,1.83
2023-05-25T16:34:29.185Z,2.00
2023-05-25T16:36:55.988Z,2.40
2023-05-25T16:39:23.168Z,2.30
2023-05-25T16:41:50.876Z,2.47
2023-05-25T16:44:17.850Z,2.50
2023-05-25T16:46:44.674Z,1.93
2023-05-25T16:49:11.403Z,2.40
2023-05-25T16:51:38.086Z,2.50
2023-05-25T16:54:05.103Z,1.87
2023-05-25T16:56:31.775Z,2.07
2023-05-25T16:58:58.449Z,2.83
2023-05-25T17:01:25.262Z,2.67
2023-05-25T17:03:52.568Z,2.77
2023-05-25T17:06:19.358Z,2.83
2023-05-25T17:08:46.108Z,2.90
2023-05-25T17:11:12.820Z,2.40
2023-05-25T17:13:39.579Z,2.60
2023-05-25T17:16:06.403Z,1.87
2023-05-25T17:18:33.187Z,3.07
2023-05-25T17:21:00.137Z,2.30
2023-05-25T17:23:26.842Z,2.40
2023-05-25T17:25:53.547Z,2.33
2023-05-25T17:28:20.309Z,2.20
2023-05-25T17:30:48.645Z,2.27
2023-05-25T17:33:15.482Z,1.93
2023-05-25T17:35:42.304Z,2.33
2023-05-25T17:38:09.012Z,2.33
2023-05-25T17:40:35.997Z,2.27
2023-05-25T17:43:02.745Z,2.47
2023-05-25T17:45:29.452Z,2.10
2023-05-25T17:47:57.228Z,2.20
2023-05-25T17:50:24.104Z,2.47
2023-05-25T17:52:50.972Z,2.70
2023-05-25T17:55:17.904Z,2.10
2023-05-25T17:57:44.586Z,2.27
2023-05-25T18:00:12.082Z,2.00
2023-05-25T18:02:41.616Z,2.30
2023-05-25T18:05:08.769Z,2.10
2023-05-25T18:07:35.531Z,2.20
2023-05-25T18:10:02.278Z,2.47
2023-05-25T18:12:28.985Z,1.87
2023-05-25T18:14:55.674Z,2.40
2023-05-25T18:17:22.413Z,2.30
2023-05-25T18:19:49.127Z,2.50
2023-05-25T18:22:16.784Z,2.33
2023-05-25T18:24:43.497Z,2.50
2023-05-25T18:27:10.341Z,2.33
2023-05-25T18:29:37.069Z,2.33
2023-05-25T18:32:03.959Z,2.97
2023-05-25T18:34:30.721Z,2.50
2023-05-25T18:36:57.476Z,2.27
2023-05-25T18:39:24.190Z,2.43
2023-05-25T18:41:50.907Z,2.60
2023-05-25T18:44:17.614Z,2.60
2023-05-25T18:46:46.253Z,2.93
2023-05-25T18:49:13.124Z,2.30
2023-05-25T18:51:40.151Z,3.20
2023-05-25T18:54:06.845Z,2.73
2023-05-25T18:56:33.513Z,2.40
2023-05-25T18:59:00.622Z,2.50
2023-05-25T19:01:27.315Z,2.90
2023-05-25T19:03:56.772Z,3.10
2023-05-25T19:06:25.364Z,2.90
2023-05-25T19:08:52.085Z,3.27
2023-05-25T19:11:19.989Z,3.07
2023-05-25T19:13:46.862Z,2.70
2023-05-25T19:16:13.866Z,2.70
2023-05-25T19:18:40.690Z,2.93
2023-05-25T19:21:07.427Z,2.43
2023-05-25T19:23:35.084Z,2.60
2023-05-25T19:26:01.930Z,2.87
2023-05-25T19:28:28.629Z,2.60
2023-05-25T19:30:55.331Z,2.70
2023-05-25T19:33:22.078Z,6.60
2023-05-25T19:35:48.842Z,3.97
2023-05-25T19:38:15.949Z,2.80
2023-05-25T19:40:42.723Z,2.87
2023-05-25T19:43:09.911Z,2.97
2023-05-25T19:45:36.720Z,3.00
2023-05-25T19:48:03.798Z,2.70
2023-05-25T19:50:30.847Z,2.67
2023-05-25T19:52:58.603Z,2.83
2023-05-25T19:55:25.703Z,2.70
2023-05-25T19:57:52.891Z,3.20
2023-05-25T20:00:26.481Z,3.20
2023-05-25T20:02:54.105Z,2.90
2023-05-25T20:05:21.099Z,2.40
2023-05-25T20:07:47.876Z,2.80
2023-05-25T20:10:14.651Z,8.97
2023-05-25T20:12:41.439Z,5.10
2023-05-25T20:15:08.505Z,3.03
2023-05-25T20:17:35.327Z,2.77
2023-05-25T20:20:03.810Z,2.93
2023-05-25T20:22:32.097Z,3.13
2023-05-25T20:25:00.621Z,2.33
2023-05-25T20:27:27.934Z,2.67
2023-05-25T20:29:54.956Z,3.07
2023-05-25T20:32:21.898Z,2.77
2023-05-25T20:34:48.590Z,3.03
2023-05-25T20:37:15.482Z,2.93
2023-05-25T20:39:42.158Z,2.77
2023-05-25T20:42:10.139Z,2.97
2023-05-25T20:44:36.945Z,3.57
2023-05-25T20:47:03.900Z,4.00
2023-05-25T20:49:30.621Z,3.20
2023-05-25T20:51:57.347Z,2.93
2023-05-25T20:54:24.159Z,3.23
2023-05-25T20:56:51.147Z,3.10
2023-05-25T20:59:17.987Z,3.30
2023-05-25T21:01:44.807Z,2.87
2023-05-25T21:04:11.621Z,3.50
2023-05-25T21:06:38.407Z,3.73
2023-05-25T21:09:05.116Z,3.60
2023-05-25T21:11:31.779Z,3.53
2023-05-25T21:13:58.483Z,3.00
2023-05-25T21:16:25.609Z,3.43
2023-05-25T21:18:52.329Z,3.00
2023-05-25T21:21:19.035Z,2.87
2023-05-25T21:23:45.984Z,2.87
2023-05-25T21:26:12.687Z,3.57
2023-05-25T21:28:39.369Z,3.67
2023-05-25T21:31:06.163Z,2.93
2023-05-25T21:33:35.756Z,3.57
2023-05-25T21:36:03.750Z,2.63
2023-05-25T21:38:30.477Z,3.20
2023-05-25T21:40:58.606Z,2.97
2023-05-25T21:43:27.182Z,3.37
2023-05-25T21:45:53.983Z,2.93
2023-05-25T21:48:21.343Z,3.70
2023-05-25T21:50:52.689Z,3.40
2023-05-25T21:53:20.045Z,3.30
2023-05-25T21:55:47.824Z,3.50
2023-05-25T21:58:17.217Z,3.63
2023-05-25T22:00:44.065Z,4.10
2023-05-25T22:03:10.926Z,3.90
2023-05-25T22:05:37.817Z,4.53
2023-05-25T22:08:05.369Z,4.40
2023-05-25T22:10:32.250Z,4.60
2023-05-25T22:12:58.924Z,4.63
2023-05-25T22:15:25.654Z,6.60
2023-05-25T22:17:52.454Z,4.77
2023-05-25T22:20:19.550Z,4.47
2023-05-25T22:22:46.428Z,5.50
2023-05-25T22:25:13.391Z,5.47
2023-05-25T22:27:40.237Z,5.53
2023-05-25T22:30:07.570Z,5.50
2023-05-25T22:32:35.036Z,4.83
2023-05-25T22:35:02.338Z,4.87
2023-05-25T22:37:29.147Z,5.33
2023-05-25T22:39:55.903Z,5.20
2023-05-25T22:42:22.858Z,5.40
2023-05-25T22:44:51.077Z,5.10
2023-05-25T22:47:17.905Z,5.60
2023-05-25T22:49:44.864Z,4.63
2023-05-25T22:52:12.347Z,4.83
2023-05-25T22:54:39.667Z,5.03
2023-05-25T22:57:08.250Z,4.40
2023-05-25T22:59:35.034Z,4.83
2023-05-25T23:02:02.092Z,3.83
2023-05-25T23:04:28.787Z,3.87
2023-05-25T23:06:55.673Z,4.03
2023-05-25T23:09:22.338Z,4.47
2023-05-25T23:11:49.092Z,3.80
2023-05-25T23:14:15.841Z,4.90
2023-05-25T23:16:42.608Z,6.07
2023-05-25T23:19:09.378Z,4.57
2023-05-25T23:21:36.129Z,4.40
2023-05-25T23:24:02.945Z,3.57
2023-05-25T23:26:29.723Z,3.83
2023-05-25T23:28:56.415Z,3.57
2023-05-25T23:31:23.257Z,4.10
2023-05-25T23:33:50.001Z,3.60
2023-05-25T23:36:16.781Z,4.17
2023-05-25T23:38:43.521Z,4.30
2023-05-25T23:41:10.205Z,3.77
2023-05-25T23:43:36.948Z,4.80
2023-05-25T23:46:03.689Z,3.63
2023-05-25T23:48:30.396Z,4.30
2023-05-25T23:50:57.061Z,3.70
2023-05-25T23:53:23.813Z,4.10
2023-05-25T23:55:50.542Z,4.10
2023-05-25T23:58:17.213Z,4.10
